createdAt,value
2022-12-14T05:01:14.298Z,-1.10
2022-12-14T05:03:50.181Z,-1.10
2022-12-14T05:06:23.964Z,-1.10
2022-12-14T05:09:06.219Z,-1.10
2022-12-14T05:11:56.422Z,-1.10
2022-12-14T05:14:31.792Z,-1.10
2022-12-14T05:17:08.761Z,-1.10
2022-12-14T05:19:44.858Z,-1.10
2022-12-14T05:22:20.700Z,-1.00
2022-12-14T05:24:52.445Z,-1.10
2022-12-14T05:27:24.138Z,-1.10
2022-12-14T05:29:55.793Z,-1.10
2022-12-14T05:32:29.001Z,-1.10
2022-12-14T05:35:01.409Z,-1.10
2022-12-14T05:37:33.060Z,-1.10
2022-12-14T05:40:05.902Z,-1.10
2022-12-14T05:42:44.163Z,-1.00
2022-12-14T05:45:17.005Z,-1.10
2022-12-14T05:47:49.981Z,-1.00
2022-12-14T05:50:21.633Z,-1.10
2022-12-14T05:52:53.330Z,-1.00
2022-12-14T05:55:25.001Z,-1.00
2022-12-14T05:57:56.626Z,-1.00
2022-12-14T06:00:28.289Z,-1.10
2022-12-14T06:03:01.302Z,-1.10
2022-12-14T06:05:32.968Z,-1.00
2022-12-14T06:08:04.980Z,-1.00
2022-12-14T06:10:36.646Z,-1.00
2022-12-14T06:13:08.319Z,-0.80
2022-12-14T06:15:40.051Z,-0.80
2022-12-14T06:18:13.111Z,-1.00
2022-12-14T06:20:44.778Z,-1.10
2022-12-14T06:23:16.432Z,-1.10
2022-12-14T06:25:53.420Z,-1.00
2022-12-14T06:28:25.065Z,-1.00
2022-12-14T06:30:56.758Z,-1.10
2022-12-14T06:33:30.315Z,-1.10
2022-12-14T06:36:02.291Z,-1.10
2022-12-14T06:38:35.205Z,-1.00
2022-12-14T06:41:08.014Z,-1.00
2022-12-14T06:43:39.705Z,-1.00
2022-12-14T06:46:15.530Z,-1.00
2022-12-14T06:48:50.636Z,-1.00
2022-12-14T06:51:22.788Z,-1.00
2022-12-14T06:53:55.932Z,-1.00
2022-12-14T06:56:27.668Z,-1.00
2022-12-14T06:58:59.328Z,-1.00
2022-12-14T07:01:31.217Z,-0.90
2022-12-14T07:04:04.545Z,-0.90
2022-12-14T07:06:37.395Z,-1.00
2022-12-14T07:09:11.707Z,-0.90
2022-12-14T07:11:43.346Z,-0.90
2022-12-14T07:21:55.392Z,-0.90
2022-12-14T07:24:27.046Z,-0.90
2022-12-14T07:26:58.671Z,-0.90
2022-12-14T07:29:34.680Z,-0.90
2022-12-14T07:32:06.690Z,-0.90
2022-12-14T07:34:39.711Z,-0.90
2022-12-14T07:37:12.724Z,-0.90
2022-12-14T07:39:44.386Z,-0.90
2022-12-14T07:42:16.027Z,-0.90
2022-12-14T07:44:47.905Z,-0.90
2022-12-14T07:47:19.550Z,-0.90
2022-12-14T07:49:52.557Z,-0.90
2022-12-14T07:52:24.213Z,-0.90
2022-12-14T07:54:55.896Z,-0.80
2022-12-14T07:57:27.552Z,-0.80
2022-12-14T07:59:59.203Z,-0.80
2022-12-14T08:02:31.096Z,-0.80
2022-12-14T08:05:10.597Z,-0.80
2022-12-14T08:07:44.111Z,-0.80
2022-12-14T08:10:15.870Z,-0.80
2022-12-14T08:12:49.835Z,-0.80
2022-12-14T08:15:21.508Z,-0.80
2022-12-14T08:17:53.142Z,-0.80
2022-12-14T08:20:26.314Z,-0.70
2022-12-14T08:22:57.989Z,-0.70
2022-12-14T08:25:29.661Z,-0.70
2022-12-14T08:28:01.298Z,-0.60
2022-12-14T08:30:32.993Z,-0.60
2022-12-14T08:33:04.659Z,-0.50
2022-12-14T08:35:37.707Z,-0.40
2022-12-14T08:38:09.352Z,-0.40
2022-12-14T08:40:41.012Z,-0.30
2022-12-14T08:43:12.647Z,-0.30
2022-12-14T08:45:44.276Z,-0.30
2022-12-14T08:48:15.911Z,-0.30
2022-12-14T08:50:49.877Z,-0.30
2022-12-14T08:53:21.757Z,-0.30
2022-12-14T08:55:53.408Z,-0.40
2022-12-14T09:01:01.127Z,-0.40
2022-12-14T09:03:33.184Z,-0.40
2022-12-14T09:06:08.034Z,-0.30
2022-12-14T09:08:39.674Z,-0.30
2022-12-14T09:11:12.047Z,-0.30
2022-12-14T09:13:44.279Z,-0.30
2022-12-14T09:16:17.536Z,-0.30
2022-12-14T09:18:49.316Z,-0.30
2022-12-14T09:21:22.454Z,-0.30
2022-12-14T09:23:59.182Z,-0.20
2022-12-14T09:26:31.608Z,-0.20
2022-12-14T09:29:03.262Z,-0.10
2022-12-14T09:31:34.980Z,-0.10
2022-12-14T09:34:06.671Z,-0.10
2022-12-14T09:36:39.697Z,-0.10
2022-12-14T09:39:11.367Z,0.00
2022-12-14T09:41:52.407Z,-0.10
2022-12-14T09:44:35.461Z,0.00
2022-12-14T09:47:11.131Z,0.00
2022-12-14T09:49:47.464Z,0.10
2022-12-14T09:52:22.193Z,0.10
2022-12-14T09:54:53.843Z,0.10
2022-12-14T09:57:28.586Z,0.10
2022-12-14T10:00:00.220Z,0.20
2022-12-14T10:02:39.994Z,0.20
2022-12-14T10:05:22.018Z,0.20
2022-12-14T10:08:00.671Z,0.20
2022-12-14T10:10:36.283Z,0.20
2022-12-14T10:13:14.047Z,0.30
2022-12-14T10:15:50.726Z,0.30
2022-12-14T10:18:59.539Z,0.30
2022-12-14T10:21:42.134Z,0.30
2022-12-14T10:24:17.756Z,0.30
2022-12-14T10:26:51.211Z,0.20
2022-12-14T10:29:28.456Z,0.20
2022-12-14T10:32:05.250Z,0.20
2022-12-14T10:34:39.567Z,0.10
2022-12-14T10:37:22.652Z,0.00
2022-12-14T10:40:09.012Z,-0.10
2022-12-14T10:42:49.488Z,-0.10
2022-12-14T10:45:40.370Z,-0.20
2022-12-14T10:48:34.220Z,-0.20
2022-12-14T10:51:07.831Z,-0.20
2022-12-14T10:53:41.441Z,-0.20
2022-12-14T10:56:17.096Z,-0.20
2022-12-14T10:59:16.212Z,-0.20
2022-12-14T11:01:48.720Z,-0.20
2022-12-14T11:04:27.431Z,-0.20
2022-12-14T11:06:59.534Z,-0.20
2022-12-14T11:09:31.309Z,-0.20
2022-12-14T11:12:06.713Z,-0.20
2022-12-14T11:14:38.456Z,-0.20
2022-12-14T11:17:29.217Z,-0.10
2022-12-14T11:20:15.820Z,-0.10
2022-12-14T11:22:48.155Z,0.00
2022-12-14T11:25:30.933Z,0.00
2022-12-14T11:28:05.766Z,0.00
2022-12-14T11:30:37.455Z,0.00
2022-12-14T11:33:13.395Z,0.00
2022-12-14T11:35:49.847Z,0.00
2022-12-14T11:38:21.743Z,0.10
2022-12-14T11:40:53.393Z,0.10
2022-12-14T11:43:28.108Z,0.10
2022-12-14T11:45:59.877Z,0.10
2022-12-14T11:48:32.260Z,0.10
2022-12-14T11:51:11.338Z,0.10
2022-12-14T11:53:42.984Z,0.10
2022-12-14T11:56:15.482Z,0.10
2022-12-14T11:58:50.675Z,0.10
2022-12-14T12:01:24.289Z,0.10
2022-12-14T12:03:56.924Z,0.20
2022-12-14T12:06:28.955Z,0.20
2022-12-14T12:09:01.728Z,0.30
2022-12-14T12:11:33.880Z,0.30
2022-12-14T12:14:18.731Z,0.40
2022-12-14T12:16:50.372Z,0.40
2022-12-14T12:19:24.624Z,0.40
2022-12-14T12:21:56.392Z,0.50
2022-12-14T12:24:29.789Z,0.50
2022-12-14T12:27:02.426Z,0.50
2022-12-14T12:29:37.901Z,0.50
2022-12-14T12:32:12.205Z,0.40
2022-12-14T12:34:45.951Z,0.40
2022-12-14T12:37:27.311Z,0.40
2022-12-14T12:40:12.127Z,0.50
2022-12-14T12:42:45.250Z,0.60
2022-12-14T12:45:20.584Z,0.60
2022-12-14T12:47:53.408Z,0.60
2022-12-14T12:50:26.771Z,0.60
2022-12-14T12:53:03.208Z,0.60
2022-12-14T12:55:38.047Z,0.60
2022-12-14T12:58:12.789Z,0.60
2022-12-14T13:00:45.779Z,0.60
2022-12-14T13:03:20.332Z,0.60
2022-12-14T13:05:52.567Z,0.60
2022-12-14T13:08:26.172Z,0.70
2022-12-14T13:13:52.378Z,0.80
2022-12-14T13:16:28.037Z,0.90
2022-12-14T13:19:19.013Z,0.90
2022-12-14T13:21:54.637Z,0.80
2022-12-14T13:24:27.964Z,0.80
2022-12-14T13:27:13.794Z,0.80
2022-12-14T13:30:00.430Z,0.80
2022-12-14T13:32:42.470Z,0.70
2022-12-14T13:35:22.289Z,0.70
2022-12-14T13:38:01.686Z,0.70
2022-12-14T13:40:58.128Z,0.70
2022-12-14T13:43:40.712Z,0.70
2022-12-14T13:46:15.444Z,0.70
2022-12-14T13:48:48.947Z,0.70
2022-12-14T13:51:25.387Z,0.70
2022-12-14T13:53:57.696Z,0.70
2022-12-14T13:56:33.389Z,0.70
2022-12-14T13:59:06.658Z,0.70
2022-12-14T14:01:55.964Z,0.80
2022-12-14T14:04:29.325Z,0.80
2022-12-14T14:07:35.446Z,0.70
2022-12-14T14:10:28.275Z,0.70
2022-12-14T14:12:59.926Z,1.00
2022-12-14T14:15:38.183Z,0.60
2022-12-14T14:18:21.595Z,0.60
2022-12-14T14:21:30.814Z,0.60
2022-12-14T14:24:18.030Z,0.70
2022-12-14T14:27:00.249Z,0.60
2022-12-14T14:29:31.936Z,0.50
2022-12-14T14:32:04.654Z,0.50
2022-12-14T14:34:48.275Z,0.50
2022-12-14T14:37:27.254Z,0.50
2022-12-14T14:40:26.188Z,0.50
2022-12-14T14:43:19.235Z,0.50
2022-12-14T14:45:52.101Z,0.40
2022-12-14T14:48:29.379Z,0.40
2022-12-14T14:51:04.103Z,0.40
2022-12-14T14:53:37.205Z,0.40
2022-12-14T14:56:33.690Z,0.40
2022-12-14T14:59:28.199Z,0.30
2022-12-14T15:02:00.427Z,0.30
2022-12-14T15:04:46.389Z,0.20
2022-12-14T15:07:21.428Z,0.20
2022-12-14T15:09:57.085Z,0.10
2022-12-14T15:12:33.093Z,0.10
2022-12-14T15:15:06.342Z,0.10
2022-12-14T15:17:37.998Z,0.00
2022-12-14T15:20:21.678Z,-0.10
2022-12-14T15:22:53.773Z,-0.10
2022-12-14T15:25:28.250Z,-0.20
2022-12-14T15:28:02.419Z,-0.20
2022-12-14T15:30:34.326Z,-0.30
2022-12-14T15:33:08.165Z,-0.40
2022-12-14T15:35:40.240Z,-0.40
2022-12-14T15:38:16.840Z,-0.50
2022-12-14T15:40:55.019Z,-0.50
2022-12-14T15:43:27.085Z,-0.60
2022-12-14T15:46:03.035Z,-0.60
2022-12-14T15:48:35.227Z,-0.60
2022-12-14T15:51:07.648Z,-0.70
2022-12-14T15:53:40.782Z,-0.80
2022-12-14T15:56:17.495Z,-0.70
2022-12-14T15:58:49.174Z,-0.80
2022-12-14T16:01:22.470Z,-0.80
2022-12-14T16:03:55.147Z,-0.80
2022-12-14T16:06:28.019Z,-0.80
2022-12-14T16:09:02.699Z,-0.90
2022-12-14T16:11:37.329Z,-0.90
2022-12-14T16:14:17.299Z,-0.90
2022-12-14T16:16:48.991Z,-1.00
2022-12-14T16:19:27.668Z,-1.00
2022-12-14T16:22:24.986Z,-1.00
2022-12-14T16:25:03.261Z,-1.00
2022-12-14T16:27:38.277Z,-1.10
2022-12-14T16:30:18.395Z,-1.10
2022-12-14T16:32:51.066Z,-1.10
2022-12-14T16:35:23.586Z,-1.10
2022-12-14T16:37:55.375Z,-1.10
2022-12-14T16:40:32.431Z,-1.20
2022-12-14T16:43:06.374Z,-1.20
2022-12-14T16:46:12.252Z,-1.20
2022-12-14T16:48:46.104Z,-1.20
2022-12-14T16:51:58.145Z,-1.30
2022-12-14T16:54:23.688Z,-1.30
2022-12-14T16:57:02.396Z,-1.30
2022-12-14T16:59:40.912Z,-1.30
2022-12-14T17:02:34.298Z,-1.40
2022-12-14T17:05:11.983Z,-1.40
2022-12-14T17:07:43.619Z,-1.40
2022-12-14T17:10:15.576Z,-1.40
2022-12-14T17:12:47.264Z,-1.40
2022-12-14T17:15:21.718Z,-1.40
2022-12-14T17:17:54.104Z,-1.40
2022-12-14T17:20:27.611Z,-1.50
2022-12-14T17:22:59.913Z,-1.50
2022-12-14T17:25:31.704Z,-1.50
2022-12-14T17:28:03.429Z,-1.50
2022-12-14T17:30:36.531Z,-1.50
2022-12-14T17:33:08.803Z,-1.60
2022-12-14T17:35:40.472Z,-1.60
2022-12-14T17:38:13.254Z,-1.60
2022-12-14T17:40:45.451Z,-1.60
2022-12-14T17:43:19.281Z,-1.60
2022-12-14T17:45:52.356Z,-1.60
2022-12-14T17:48:24.086Z,-1.70
2022-12-14T17:50:55.780Z,-1.70
2022-12-14T17:53:29.101Z,-1.70
2022-12-14T17:56:01.132Z,-1.80
2022-12-14T17:58:32.806Z,-1.80
2022-12-14T18:01:05.975Z,-1.80
2022-12-14T18:03:37.783Z,-1.80
2022-12-14T18:06:12.254Z,-1.80
2022-12-14T18:08:44.035Z,-1.80
2022-12-14T18:11:17.220Z,-1.80
2022-12-14T18:13:49.098Z,-1.80
2022-12-14T18:16:22.959Z,-1.80
2022-12-14T18:18:54.705Z,-1.90
2022-12-14T18:21:27.336Z,-1.90
2022-12-14T18:23:59.065Z,-1.90
2022-12-14T18:26:30.719Z,-1.90
2022-12-14T18:29:02.442Z,-1.90
2022-12-14T18:31:36.808Z,-1.90
2022-12-14T18:34:09.605Z,-1.90
2022-12-14T18:36:41.285Z,-2.00
2022-12-14T18:39:12.959Z,-2.00
2022-12-14T18:41:44.626Z,-2.00
2022-12-14T18:44:16.267Z,-2.00
2022-12-14T18:46:49.657Z,-2.00
2022-12-14T18:49:21.415Z,-2.00
2022-12-14T18:51:53.108Z,-2.00
2022-12-14T18:54:24.764Z,-1.90
2022-12-14T18:56:56.436Z,-2.00
2022-12-14T18:59:28.099Z,-2.00
2022-12-14T19:02:01.401Z,-2.00
2022-12-14T19:04:33.154Z,-2.00
2022-12-14T19:07:04.824Z,-2.00
2022-12-14T19:09:36.494Z,-2.00
2022-12-14T19:12:08.207Z,-2.00
2022-12-14T19:14:39.880Z,-2.10
2022-12-14T19:17:13.070Z,-2.00
2022-12-14T19:19:44.867Z,-2.10
2022-12-14T19:22:16.576Z,-2.10
2022-12-14T19:24:52.293Z,-2.10
2022-12-14T19:27:58.879Z,-2.10
2022-12-14T19:30:17.663Z,-2.10
2022-12-14T19:32:51.497Z,-2.10
2022-12-14T19:35:23.553Z,-2.10
2022-12-14T19:37:55.258Z,-2.10
2022-12-14T19:40:26.938Z,-2.20
2022-12-14T19:42:58.623Z,-2.10
2022-12-14T19:45:30.272Z,-2.20
2022-12-14T19:48:03.649Z,-2.20
2022-12-14T19:50:35.280Z,-2.20
2022-12-14T19:53:06.962Z,-2.20
2022-12-14T19:55:38.621Z,-2.20
2022-12-14T19:58:10.290Z,-2.20
2022-12-14T20:00:41.961Z,-2.20
2022-12-14T20:03:15.119Z,-2.30
2022-12-14T20:05:50.191Z,-2.20
2022-12-14T20:08:21.949Z,-2.30
2022-12-14T20:10:53.604Z,-2.20
2022-12-14T20:13:27.392Z,-2.30
2022-12-14T20:15:59.391Z,-2.30
2022-12-14T20:18:32.425Z,-2.30
2022-12-14T20:21:05.523Z,-2.30
2022-12-14T20:23:37.349Z,-2.30
2022-12-14T20:26:12.618Z,-2.30
2022-12-14T20:28:46.598Z,-2.30
2022-12-14T20:31:20.902Z,-2.30
2022-12-14T20:33:54.082Z,-2.30
2022-12-14T20:36:25.709Z,-2.30
2022-12-14T20:38:59.501Z,-2.30
2022-12-14T20:41:31.768Z,-2.30
2022-12-14T20:44:06.738Z,-2.30
2022-12-14T20:46:39.399Z,-2.30
2022-12-14T20:49:13.408Z,-2.30
2022-12-14T20:51:45.456Z,-2.30
2022-12-14T20:54:18.145Z,-2.30
2022-12-14T20:56:49.897Z,-2.30
2022-12-14T20:59:21.556Z,-2.30
2022-12-14T21:01:56.226Z,-2.30
2022-12-14T21:04:30.303Z,-2.30
2022-12-14T21:07:01.947Z,-2.30
2022-12-14T21:09:33.581Z,-2.30
2022-12-14T21:12:05.451Z,-2.30
2022-12-14T21:14:37.824Z,-2.40
2022-12-14T21:17:09.704Z,-2.40
2022-12-14T21:19:42.715Z,-2.40
2022-12-14T21:22:15.390Z,-2.40
2022-12-14T21:25:04.671Z,-2.50
2022-12-14T21:27:38.455Z,-2.50
2022-12-14T21:30:11.572Z,-2.50
2022-12-14T21:32:43.238Z,-2.50
2022-12-14T21:35:16.420Z,-2.60
2022-12-14T21:37:48.072Z,-2.60
2022-12-14T21:40:19.722Z,-2.60
2022-12-14T21:42:51.386Z,-2.60
2022-12-14T21:45:23.051Z,-2.60
2022-12-14T21:47:54.706Z,-2.60
2022-12-14T21:50:27.716Z,-2.70
2022-12-14T21:52:59.404Z,-2.70
2022-12-14T21:55:31.050Z,-2.70
2022-12-14T21:58:02.706Z,-2.70
2022-12-14T22:00:34.379Z,-2.80
2022-12-14T22:03:06.208Z,-2.80
2022-12-14T22:05:39.379Z,-2.80
2022-12-14T22:08:11.020Z,-2.80
2022-12-14T22:10:42.669Z,-2.80
2022-12-14T22:13:14.302Z,-2.80
2022-12-14T22:15:45.941Z,-2.90
2022-12-14T22:18:21.052Z,-2.90
2022-12-14T22:20:54.025Z,-2.90
2022-12-14T22:23:25.686Z,-3.00
2022-12-14T22:25:57.336Z,-3.00
2022-12-14T22:28:28.979Z,-3.10
2022-12-14T22:31:01.507Z,-3.10
2022-12-14T22:33:33.408Z,-3.10
2022-12-14T22:36:07.347Z,-3.10
2022-12-14T22:38:39.019Z,-3.20
2022-12-14T22:41:11.393Z,-3.20
2022-12-14T22:43:43.564Z,-3.20
2022-12-14T22:48:47.705Z,-3.30
2022-12-14T22:51:20.933Z,-3.40
2022-12-14T22:53:52.638Z,-3.40
2022-12-14T22:56:26.857Z,-3.40
2022-12-14T22:59:01.729Z,-3.50
